Time;durP1;ratioP1;P1;durP2;ratioP2;P2;SDS_P1;SDS_P2;PMS_P1;PMS_P2;Temp;Humidity;BMP_temperature;BMP_pressure;BME280_temperature;BME280_humidity;BME280_pressure;Samples;Min_cycle;Max_cycle;Signal;HPM_P1;HPM_P2
2021/03/29 00:00:15;;;;;;;;;;;15.30;58.20;;;;;;4916082;29;19907;-62
2021/03/29 00:02:41;;;;;;;;;;;15.50;58.30;;;;;;4911298;29;19918;-62
2021/03/29 00:05:07;;;;;;;;;;;15.50;58.40;;;;;;4897460;29;20511;-62
2021/03/29 00:07:33;;;;;;;;;;;15.50;58.30;;;;;;4897052;29;19915;-62
2021/03/29 00:10:01;;;;;;;;;;;15.50;58.30;;;;;;4897047;29;19907;-62
2021/03/29 00:12:27;;;;;;;;;;;15.40;58.30;;;;;;4897016;29;20396;-62
2021/03/29 00:14:52;;;;;;;;;;;15.50;58.30;;;;;;4896933;29;19915;-62
2021/03/29 00:17:18;;;;;;;;;;;15.40;58.30;;;;;;4896962;29;20015;-62
2021/03/29 00:19:44;;;;;;;;;;;15.30;58.30;;;;;;4896964;29;19946;-61
2021/03/29 00:22:09;;;;;;;;;;;15.40;58.30;;;;;;4897095;29;19908;-62
2021/03/29 00:24:35;;;;;;;;;;;15.40;58.30;;;;;;4896897;29;19907;-61
2021/03/29 00:27:01;;;;;;;;;;;15.30;58.30;;;;;;4896924;29;20438;-62
2021/03/29 00:29:27;;;;;;;;;;;15.40;58.30;;;;;;4896887;29;20005;-61
2021/03/29 00:31:53;;;;;;;;;;;15.40;58.40;;;;;;4896827;29;19915;-62
2021/03/29 00:34:18;;;;;;;;;;;15.30;58.30;;;;;;4897041;29;19923;-62
2021/03/29 00:36:45;;;;;;;;;;;15.20;58.30;;;;;;4896841;29;19907;-62
2021/03/29 00:39:11;;;;;;;;;;;15.30;58.50;;;;;;4897101;29;19911;-62
2021/03/29 00:41:36;;;;;;;;;;;15.40;58.40;;;;;;4896876;29;20375;-62
2021/03/29 00:44:03;;;;;;;;;;;15.20;58.30;;;;;;4896708;29;19908;-62
2021/03/29 00:46:29;;;;;;;;;;;15.30;58.30;;;;;;4896676;29;19925;-62
2021/03/29 00:48:55;;;;;;;;;;;15.30;58.30;;;;;;4896724;29;20356;-62
2021/03/29 00:51:23;;;;;;;;;;;15.40;58.40;;;;;;4896746;29;19918;-62
2021/03/29 00:53:49;;;;;;;;;;;15.30;58.40;;;;;;4896655;29;20017;-62
2021/03/29 00:56:15;;;;;;;;;;;15.20;58.30;;;;;;4879857;29;19908;-62
2021/03/29 00:58:42;;;;;;;;;;;15.20;58.30;;;;;;4896599;29;19927;-62
2021/03/29 01:01:13;;;;;;;;;;;15.30;58.40;;;;;;4899060;29;19918;-61
2021/03/29 01:03:54;;;;;;;;;;;15.40;58.30;;;;;;4901290;29;19923;-62
2021/03/29 01:06:20;;;;;;;;;;;15.40;58.40;;;;;;4900022;29;19911;-62
2021/03/29 01:08:47;;;;;;;;;;;15.30;58.30;;;;;;4900147;29;20002;-62
2021/03/29 01:11:15;;;;;;;;;;;15.30;58.40;;;;;;4899981;29;20024;-62
2021/03/29 01:13:48;;;;;;;;;;;15.30;58.40;;;;;;4899982;29;19971;-62
2021/03/29 01:16:15;;;;;;;;;;;15.30;58.30;;;;;;4900233;29;20278;-61
2021/03/29 01:18:42;;;;;;;;;;;15.20;58.30;;;;;;4899814;29;19918;-62
2021/03/29 01:21:07;;;;;;;;;;;16.00;58.80;;;;;;4899850;29;19911;-62
2021/03/29 01:23:33;;;;;;;;;;;15.20;58.40;;;;;;4899803;29;19911;-62
2021/03/29 01:26:22;;;;;;;;;;;15.20;58.40;;;;;;4899749;29;19907;-62
2021/03/29 01:28:47;;;;;;;;;;;15.30;58.40;;;;;;4887095;29;20304;-62
2021/03/29 01:31:13;;;;;;;;;;;15.30;58.40;;;;;;4899711;29;20010;-62
2021/03/29 01:33:39;;;;;;;;;;;15.30;58.50;;;;;;4899560;29;19922;-62
2021/03/29 01:36:04;;;;;;;;;;;15.00;59.00;;;;;;4882773;29;19907;-61
2021/03/29 01:38:30;;;;;;;;;;;15.30;58.50;;;;;;4899560;29;19908;-62
2021/03/29 01:40:57;;;;;;;;;;;15.20;58.40;;;;;;4899789;29;19912;-61
2021/03/29 01:43:23;;;;;;;;;;;15.30;58.50;;;;;;4899707;29;20002;-62
2021/03/29 01:45:48;;;;;;;;;;;15.10;58.30;;;;;;4899511;29;19995;-62
2021/03/29 01:48:14;;;;;;;;;;;15.10;58.40;;;;;;4899563;29;19907;-62
2021/03/29 01:50:41;;;;;;;;;;;15.20;58.40;;;;;;4899433;29;20002;-62
2021/03/29 01:53:07;;;;;;;;;;;15.20;58.40;;;;;;4899207;29;19930;-62
2021/03/29 01:55:33;;;;;;;;;;;15.20;58.50;;;;;;4899326;29;19907;-62
2021/03/29 01:57:59;;;;;;;;;;;15.20;58.50;;;;;;4899210;29;19923;-62
2021/03/29 02:00:31;;;;;;;;;;;15.10;58.40;;;;;;4882331;29;19907;-62
2021/03/29 02:02:58;;;;;;;;;;;15.20;58.40;;;;;;4899275;29;19912;-62
2021/03/29 02:05:24;;;;;;;;;;;14.90;58.40;;;;;;4899494;29;19919;-62
2021/03/29 02:07:50;;;;;;;;;;;15.00;58.40;;;;;;4882113;29;19908;-62
2021/03/29 02:10:20;;;;;;;;;;;15.20;58.50;;;;;;4898953;29;19996;-61
2021/03/29 02:12:46;;;;;;;;;;;15.20;58.40;;;;;;4898069;29;19907;-62
2021/03/29 02:15:12;;;;;;;;;;;15.20;58.50;;;;;;4898841;29;20290;-62
2021/03/29 02:17:38;;;;;;;;;;;15.00;58.40;;;;;;4898827;29;19918;-62
2021/03/29 02:20:14;;;;;;;;;;;15.40;58.60;;;;;;4898767;29;20002;-62
2021/03/29 02:22:42;;;;;;;;;;;15.10;58.50;;;;;;4899008;29;20323;-62
2021/03/29 02:25:08;;;;;;;;;;;15.20;58.50;;;;;;4898667;29;20420;-62
2021/03/29 02:27:35;;;;;;;;;;;15.20;58.50;;;;;;4898993;29;19911;-62
2021/03/29 02:30:05;;;;;;;;;;;15.10;58.50;;;;;;4898665;29;20006;-62
2021/03/29 02:32:31;;;;;;;;;;;15.20;58.60;;;;;;4898676;29;19971;-62
2021/03/29 02:34:56;;;;;;;;;;;15.20;58.60;;;;;;4898488;29;19923;-62
2021/03/29 02:37:22;;;;;;;;;;;14.90;58.50;;;;;;4898597;29;19915;-62
2021/03/29 02:39:47;;;;;;;;;;;15.10;58.60;;;;;;4898553;29;19912;-62
2021/03/29 02:42:13;;;;;;;;;;;14.90;58.50;;;;;;4898546;29;19907;-62
2021/03/29 02:44:39;;;;;;;;;;;14.80;58.50;;;;;;4898386;29;19914;-62
2021/03/29 02:47:05;;;;;;;;;;;14.50;58.30;;;;;;4898491;29;19914;-62
2021/03/29 02:49:30;;;;;;;;;;;15.00;58.60;;;;;;4898349;29;19908;-62
2021/03/29 02:51:56;;;;;;;;;;;15.10;59.30;;;;;;4898176;29;19934;-62
2021/03/29 02:54:22;;;;;;;;;;;15.10;58.60;;;;;;4881423;29;20002;-62
2021/03/29 02:56:49;;;;;;;;;;;15.00;58.60;;;;;;4881284;29;20351;-62
2021/03/29 02:59:15;;;;;;;;;;;15.10;58.70;;;;;;4898166;29;19950;-62
2021/03/29 03:01:41;;;;;;;;;;;15.10;58.70;;;;;;4897947;29;19995;-62
2021/03/29 03:04:08;;;;;;;;;;;14.90;58.60;;;;;;4898690;29;19962;-62
2021/03/29 03:06:34;;;;;;;;;;;15.20;58.70;;;;;;4881302;29;19915;-62
2021/03/29 03:09:04;;;;;;;;;;;15.10;58.70;;;;;;4880924;29;19908;-62
2021/03/29 03:11:30;;;;;;;;;;;15.00;58.70;;;;;;4897759;29;19907;-62
2021/03/29 03:13:55;;;;;;;;;;;15.00;58.60;;;;;;4897925;29;19922;-62
2021/03/29 03:16:21;;;;;;;;;;;14.90;58.60;;;;;;4897666;29;20378;-61
2021/03/29 03:18:50;;;;;;;;;;;14.90;58.70;;;;;;4897654;29;19934;-62
2021/03/29 03:21:17;;;;;;;;;;;15.00;58.70;;;;;;4897886;29;19908;-62
2021/03/29 03:23:50;;;;;;;;;;;14.80;58.60;;;;;;4897229;29;19911;-62
2021/03/29 03:26:15;;;;;;;;;;;15.00;58.60;;;;;;4897807;29;19963;-62
2021/03/29 03:28:41;;;;;;;;;;;15.00;58.70;;;;;;4897481;29;19911;-62
2021/03/29 03:31:06;;;;;;;;;;;15.00;58.70;;;;;;4897531;29;19918;-62
2021/03/29 03:33:32;;;;;;;;;;;14.80;58.60;;;;;;4880585;29;19987;-62
2021/03/29 03:35:57;;;;;;;;;;;14.90;58.60;;;;;;4897481;29;19983;-62
2021/03/29 03:38:32;;;;;;;;;;;15.20;58.80;;;;;;4897664;29;19908;-62
2021/03/29 03:41:19;;;;;;;;;;;15.00;58.60;;;;;;4897358;29;19911;-62
2021/03/29 03:43:49;;;;;;;;;;;15.00;58.70;;;;;;4897717;29;20418;-62
2021/03/29 03:46:16;;;;;;;;;;;15.00;58.70;;;;;;4897237;29;19963;-62
2021/03/29 03:48:43;;;;;;;;;;;15.00;58.70;;;;;;4880423;29;19911;-62
2021/03/29 03:51:09;;;;;;;;;;;14.90;58.70;;;;;;4897275;29;19958;-62
2021/03/29 03:53:35;;;;;;;;;;;14.90;58.70;;;;;;4897180;29;19943;-62
2021/03/29 03:56:01;;;;;;;;;;;15.40;58.90;;;;;;4897368;29;19908;-62
2021/03/29 03:58:27;;;;;;;;;;;15.00;58.70;;;;;;4897178;29;19911;-61
2021/03/29 04:00:53;;;;;;;;;;;14.90;58.70;;;;;;4897309;29;20306;-62
2021/03/29 04:03:18;;;;;;;;;;;14.80;58.70;;;;;;4897132;29;19907;-62
2021/03/29 04:05:44;;;;;;;;;;;14.70;58.60;;;;;;4897510;29;19920;-62
2021/03/29 04:08:10;;;;;;;;;;;15.00;58.80;;;;;;4897149;29;19908;-62
2021/03/29 04:13:11;;;;;;;;;;;15.00;58.80;;;;;;4903597;29;19975;-62
2021/03/29 04:15:37;;;;;;;;;;;14.70;58.70;;;;;;4896938;29;19918;-62
2021/03/29 04:18:03;;;;;;;;;;;14.80;58.70;;;;;;4897024;29;19908;-62
2021/03/29 04:20:29;;;;;;;;;;;14.90;58.70;;;;;;4897013;29;19907;-62
2021/03/29 04:22:54;;;;;;;;;;;15.00;58.80;;;;;;4896904;29;20374;-61
2021/03/29 04:25:20;;;;;;;;;;;14.80;58.70;;;;;;4880123;29;19907;-62
2021/03/29 04:27:45;;;;;;;;;;;14.90;58.80;;;;;;4897173;29;19907;-62
2021/03/29 04:30:12;;;;;;;;;;;14.90;58.70;;;;;;4897129;29;19947;-62
2021/03/29 04:32:38;;;;;;;;;;;14.90;58.80;;;;;;4896885;29;19907;-62
2021/03/29 04:35:04;;;;;;;;;;;14.80;58.70;;;;;;4897742;29;19915;-62
2021/03/29 04:37:29;;;;;;;;;;;14.90;58.80;;;;;;4900543;29;19955;-62
2021/03/29 04:39:55;;;;;;;;;;;14.90;58.80;;;;;;4900777;29;19908;-62
2021/03/29 04:42:20;;;;;;;;;;;14.70;58.70;;;;;;4900515;29;19908;-62
2021/03/29 04:44:46;;;;;;;;;;;14.80;58.70;;;;;;4900316;29;19956;-62
2021/03/29 04:47:11;;;;;;;;;;;14.80;58.70;;;;;;4900366;29;19917;-62
2021/03/29 04:49:37;;;;;;;;;;;15.00;58.80;;;;;;4900363;29;19918;-62
2021/03/29 04:52:03;;;;;;;;;;;14.90;58.80;;;;;;4900333;29;19930;-62
2021/03/29 04:54:29;;;;;;;;;;;14.90;58.80;;;;;;4900145;29;19915;-62
2021/03/29 04:57:01;;;;;;;;;;;14.70;58.70;;;;;;4900404;29;20526;-62
2021/03/29 04:59:27;;;;;;;;;;;14.90;58.70;;;;;;4883195;29;20345;-62
2021/03/29 05:01:52;;;;;;;;;;;14.70;58.80;;;;;;4900125;29;20002;-62
2021/03/29 05:04:17;;;;;;;;;;;14.90;58.90;;;;;;4900540;29;20370;-62
2021/03/29 05:06:43;;;;;;;;;;;14.60;58.70;;;;;;4883219;29;19914;-62
2021/03/29 05:09:09;;;;;;;;;;;14.90;59.10;;;;;;4900326;29;19914;-62
2021/03/29 05:11:46;;;;;;;;;;;14.90;59.30;;;;;;4900117;29;19947;-62
2021/03/29 05:14:11;;;;;;;;;;;14.90;59.40;;;;;;4906159;29;19971;-61
2021/03/29 05:16:37;;;;;;;;;;;15.70;59.90;;;;;;4899954;29;19919;-62
2021/03/29 05:19:03;;;;;;;;;;;15.10;59.70;;;;;;4900094;29;20278;-62
2021/03/29 05:21:28;;;;;;;;;;;15.20;59.80;;;;;;4899729;29;20329;-62
2021/03/29 05:23:54;;;;;;;;;;;15.10;59.30;;;;;;4899755;29;19998;-62
2021/03/29 05:26:19;;;;;;;;;;;15.40;59.10;;;;;;4898456;29;19908;-62
2021/03/29 05:28:44;;;;;;;;;;;16.40;59.20;;;;;;4899475;29;19963;-61
2021/03/29 05:31:10;;;;;;;;;;;15.60;58.50;;;;;;4899592;29;19931;-62
2021/03/29 05:33:35;;;;;;;;;;;15.70;58.20;;;;;;4899865;29;19915;-62
2021/03/29 05:36:01;;;;;;;;;;;15.80;58.10;;;;;;4899565;29;19976;-62
2021/03/29 05:38:26;;;;;;;;;;;15.70;57.80;;;;;;4882689;29;19919;-62
2021/03/29 05:40:52;;;;;;;;;;;15.90;57.70;;;;;;4899546;29;19918;-62
2021/03/29 05:43:18;;;;;;;;;;;16.00;57.70;;;;;;4899649;29;19918;-62
2021/03/29 05:45:44;;;;;;;;;;;15.80;57.60;;;;;;4899434;29;19907;-62
2021/03/29 05:48:10;;;;;;;;;;;15.80;57.70;;;;;;4899313;29;20381;-62
2021/03/29 05:50:36;;;;;;;;;;;16.00;57.80;;;;;;4899267;29;19923;-61
2021/03/29 05:53:01;;;;;;;;;;;15.90;57.80;;;;;;4882193;29;19979;-61
2021/03/29 05:55:39;;;;;;;;;;;15.90;58.00;;;;;;4899389;29;20355;-61
2021/03/29 05:58:19;;;;;;;;;;;15.80;58.00;;;;;;4905570;29;19962;-61
2021/03/29 06:00:45;;;;;;;;;;;15.80;58.10;;;;;;4899117;29;19907;-62
2021/03/29 06:03:31;;;;;;;;;;;15.80;58.10;;;;;;4899188;29;19981;-61
2021/03/29 06:05:56;;;;;;;;;;;15.80;58.10;;;;;;4882978;29;20370;-62
2021/03/29 06:08:22;;;;;;;;;;;15.70;58.10;;;;;;4899232;29;20007;-61
2021/03/29 06:10:50;;;;;;;;;;;15.60;58.10;;;;;;4898955;29;19983;-62
2021/03/29 06:13:17;;;;;;;;;;;15.70;58.20;;;;;;4899000;29;19923;-62
2021/03/29 06:15:43;;;;;;;;;;;15.50;58.10;;;;;;4898960;29;19918;-62
2021/03/29 06:18:12;;;;;;;;;;;15.60;58.20;;;;;;4898929;29;19911;-62
2021/03/29 06:20:56;;;;;;;;;;;15.70;58.10;;;;;;4881985;29;19912;-62
2021/03/29 06:23:22;;;;;;;;;;;15.70;58.20;;;;;;4898387;29;19911;-62
2021/03/29 06:25:47;;;;;;;;;;;15.60;58.30;;;;;;4898575;29;19918;-61
2021/03/29 06:28:29;;;;;;;;;;;15.70;58.50;;;;;;4898849;29;19914;-62
2021/03/29 06:30:54;;;;;;;;;;;15.40;58.30;;;;;;4898681;29;19919;-61
2021/03/29 06:33:20;;;;;;;;;;;15.80;58.60;;;;;;4898805;29;19915;-61
2021/03/29 06:35:52;;;;;;;;;;;15.60;58.60;;;;;;4898638;29;19908;-63
2021/03/29 06:38:27;;;;;;;;;;;15.60;58.40;;;;;;4898283;29;19919;-63
2021/03/29 06:40:57;;;;;;;;;;;15.60;58.50;;;;;;4904682;29;19907;-62
2021/03/29 06:43:29;;;;;;;;;;;15.60;58.80;;;;;;4898484;29;19918;-62
2021/03/29 06:45:57;;;;;;;;;;;15.60;58.90;;;;;;4898115;29;20425;-62
2021/03/29 06:48:29;;;;;;;;;;;15.50;59.20;;;;;;4897804;29;19919;-62
2021/03/29 06:51:08;;;;;;;;;;;15.60;59.10;;;;;;4898180;29;19914;-62
2021/03/29 06:53:34;;;;;;;;;;;15.60;59.00;;;;;;4881343;29;20374;-62
2021/03/29 06:56:19;;;;;;;;;;;15.50;58.90;;;;;;4898223;29;20015;-62
2021/03/29 06:58:45;;;;;;;;;;;15.60;58.90;;;;;;4897728;29;20002;-62
2021/03/29 07:01:14;;;;;;;;;;;15.30;58.80;;;;;;4898160;29;19997;-62
2021/03/29 07:03:40;;;;;;;;;;;15.60;58.90;;;;;;4898065;29;19908;-62
2021/03/29 07:06:06;;;;;;;;;;;15.70;58.90;;;;;;4898386;29;19971;-62
2021/03/29 07:08:32;;;;;;;;;;;15.60;58.80;;;;;;4898157;29;19957;-62
2021/03/29 07:10:58;;;;;;;;;;;15.60;58.80;;;;;;4898250;29;19968;-62
2021/03/29 07:13:24;;;;;;;;;;;16.40;59.20;;;;;;4897864;29;19915;-62
2021/03/29 07:15:50;;;;;;;;;;;15.70;58.80;;;;;;4897916;29;19933;-62
2021/03/29 07:18:15;;;;;;;;;;;15.70;58.80;;;;;;4897907;29;19907;-62
2021/03/29 07:20:41;;;;;;;;;;;15.60;58.80;;;;;;4897826;29;19994;-62
2021/03/29 07:23:07;;;;;;;;;;;15.70;58.80;;;;;;4897823;29;20609;-62
2021/03/29 07:25:35;;;;;;;;;;;15.60;58.70;;;;;;4880827;29;20006;-62
2021/03/29 07:28:01;;;;;;;;;;;15.70;58.80;;;;;;4898001;29;20446;-62
2021/03/29 07:31:00;;;;;;;;;;;15.80;58.90;;;;;;4897737;29;19913;-62
2021/03/29 07:33:45;;;;;;;;;;;15.80;58.80;;;;;;4846504;29;19915;-62
2021/03/29 07:36:11;;;;;;;;;;;16.40;59.30;;;;;;4897459;29;19915;-62
2021/03/29 07:38:53;;;;;;;;;;;15.90;58.90;;;;;;4897548;29;19918;-63
2021/03/29 07:41:18;;;;;;;;;;;15.90;58.80;;;;;;4880703;29;19987;-63
2021/03/29 07:44:04;;;;;;;;;;;15.90;58.90;;;;;;4897386;29;19955;-63
2021/03/29 07:46:36;;;;;;;;;;;15.90;58.80;;;;;;4896551;29;20389;-63
2021/03/29 07:49:02;;;;;;;;;;;16.00;58.80;;;;;;4896998;29;20007;-62
2021/03/29 07:51:27;;;;;;;;;;;15.80;58.70;;;;;;4897268;29;20010;-62
2021/03/29 07:53:54;;;;;;;;;;;15.90;58.70;;;;;;4897291;29;19941;-62
2021/03/29 07:56:35;;;;;;;;;;;16.00;58.70;;;;;;4897390;29;19907;-62
2021/03/29 07:59:04;;;;;;;;;;;16.10;58.70;;;;;;4897321;29;19914;-62
2021/03/29 08:01:48;;;;;;;;;;;16.10;58.60;;;;;;4897221;29;19907;-62
2021/03/29 08:04:14;;;;;;;;;;;16.10;58.60;;;;;;4897689;29;20323;-62
2021/03/29 08:06:46;;;;;;;;;;;16.10;58.60;;;;;;4888316;29;19919;-62
2021/03/29 08:09:13;;;;;;;;;;;16.20;58.50;;;;;;4877848;29;19994;-63
2021/03/29 08:11:55;;;;;;;;;;;16.20;58.50;;;;;;4881556;29;20033;-62
2021/03/29 08:14:34;;;;;;;;;;;16.20;58.40;;;;;;4864911;29;20495;-62
2021/03/29 08:17:18;;;;;;;;;;;16.20;58.10;;;;;;4882251;29;19911;-62
2021/03/29 08:20:04;;;;;;;;;;;16.30;58.10;;;;;;4882316;29;20268;-62
2021/03/29 08:22:29;;;;;;;;;;;16.10;57.90;;;;;;4882222;29;19908;-62
2021/03/29 08:24:55;;;;;;;;;;;16.40;58.00;;;;;;4865498;29;19915;-62
2021/03/29 08:27:20;;;;;;;;;;;16.10;58.00;;;;;;4882340;29;20437;-62
2021/03/29 08:29:47;;;;;;;;;;;16.30;57.70;;;;;;4882350;29;19998;-62
2021/03/29 08:32:25;;;;;;;;;;;16.40;57.60;;;;;;4881887;29;19912;-62
2021/03/29 08:34:52;;;;;;;;;;;16.50;57.50;;;;;;4881485;29;19920;-62
2021/03/29 08:37:38;;;;;;;;;;;16.50;57.40;;;;;;4881800;29;19972;-62
2021/03/29 08:40:08;;;;;;;;;;;16.60;57.30;;;;;;4881742;29;19908;-62
2021/03/29 08:42:34;;;;;;;;;;;16.60;57.40;;;;;;4881994;29;19908;-62
2021/03/29 08:45:05;;;;;;;;;;;16.60;57.20;;;;;;4882188;29;19915;-63
2021/03/29 08:47:30;;;;;;;;;;;16.70;57.20;;;;;;4865202;29;19930;-62
2021/03/29 08:49:57;;;;;;;;;;;16.70;57.70;;;;;;4881979;29;19908;-62
2021/03/29 08:52:23;;;;;;;;;;;16.70;57.00;;;;;;4881897;29;20352;-62
2021/03/29 08:54:50;;;;;;;;;;;16.60;56.80;;;;;;4881782;29;19988;-62
2021/03/29 08:57:15;;;;;;;;;;;16.60;57.00;;;;;;4881814;29;19909;-62
2021/03/29 08:59:41;;;;;;;;;;;16.90;56.70;;;;;;4881854;29;19956;-62
2021/03/29 09:02:13;;;;;;;;;;;16.90;56.60;;;;;;4881476;29;19911;-62
2021/03/29 09:04:48;;;;;;;;;;;16.90;56.40;;;;;;4881854;29;19907;-62
2021/03/29 09:07:13;;;;;;;;;;;17.00;56.30;;;;;;4881759;29;20003;-62
2021/03/29 09:09:39;;;;;;;;;;;17.00;56.20;;;;;;4881682;29;19961;-62
2021/03/29 09:12:05;;;;;;;;;;;16.90;56.00;;;;;;4881767;29;19967;-62
2021/03/29 09:14:30;;;;;;;;;;;17.00;55.90;;;;;;4881341;29;19939;-63
2021/03/29 09:17:00;;;;;;;;;;;17.20;55.90;;;;;;4881490;29;20393;-62
2021/03/29 09:19:25;;;;;;;;;;;17.00;55.60;;;;;;4881397;29;19963;-62
2021/03/29 09:21:52;;;;;;;;;;;17.10;55.50;;;;;;4863798;29;19983;-62
2021/03/29 09:24:19;;;;;;;;;;;17.60;55.70;;;;;;4880346;29;19916;-62
2021/03/29 09:27:14;;;;;;;;;;;17.30;56.00;;;;;;4881166;29;19915;-63
2021/03/29 09:29:41;;;;;;;;;;;17.60;55.30;;;;;;4852480;29;19943;-61
2021/03/29 09:32:18;;;;;;;;;;;17.60;54.40;;;;;;4881307;29;19923;-61
2021/03/29 09:34:45;;;;;;;;;;;17.80;54.30;;;;;;4880860;29;19916;-61
2021/03/29 09:37:24;;;;;;;;;;;17.50;54.30;;;;;;4880842;29;19930;-60
2021/03/29 09:40:04;;;;;;;;;;;17.70;54.50;;;;;;4880893;29;19908;-61
2021/03/29 09:42:35;;;;;;;;;;;17.70;54.60;;;;;;4880603;29;19912;-61
2021/03/29 09:45:00;;;;;;;;;;;17.70;54.70;;;;;;4880878;29;19908;-60
2021/03/29 09:47:28;;;;;;;;;;;17.80;54.70;;;;;;4863941;29;19957;-60
2021/03/29 09:49:53;;;;;;;;;;;17.70;54.60;;;;;;4863716;29;19907;-62
2021/03/29 09:52:19;;;;;;;;;;;17.70;54.90;;;;;;4880881;29;19940;-62
2021/03/29 09:54:45;;;;;;;;;;;17.70;55.20;;;;;;4880493;29;19916;-62
2021/03/29 09:57:14;;;;;;;;;;;17.40;55.10;;;;;;4863903;29;20351;-62
2021/03/29 09:59:42;;;;;;;;;;;17.70;55.20;;;;;;4879658;29;20003;-61
2021/03/29 10:02:18;;;;;;;;;;;17.60;55.20;;;;;;4863703;29;19964;-61
2021/03/29 10:04:44;;;;;;;;;;;17.70;55.30;;;;;;4863573;29;19912;-62
2021/03/29 10:07:14;;;;;;;;;;;17.70;55.40;;;;;;4880577;29;19920;-62
2021/03/29 10:09:40;;;;;;;;;;;17.70;55.40;;;;;;4863454;29;19911;-62
2021/03/29 10:12:06;;;;;;;;;;;17.70;55.60;;;;;;4880511;29;19930;-62
2021/03/29 10:14:32;;;;;;;;;;;17.70;55.50;;;;;;4880209;29;19922;-62
2021/03/29 10:16:58;;;;;;;;;;;17.70;55.50;;;;;;4880146;29;19922;-62
2021/03/29 10:19:30;;;;;;;;;;;17.50;55.50;;;;;;4880148;29;19907;-62
2021/03/29 10:22:04;;;;;;;;;;;17.70;55.60;;;;;;4880375;29;19960;-62
2021/03/29 10:24:34;;;;;;;;;;;17.80;55.70;;;;;;4863378;29;19915;-61
2021/03/29 10:27:04;;;;;;;;;;;17.80;55.70;;;;;;4880015;29;19907;-62
2021/03/29 10:29:35;;;;;;;;;;;17.80;55.70;;;;;;4879903;29;19915;-62
2021/03/29 10:32:01;;;;;;;;;;;17.80;55.70;;;;;;4879551;29;20355;-62
2021/03/29 10:34:27;;;;;;;;;;;17.10;55.30;;;;;;4862669;29;20399;-61
2021/03/29 10:36:53;;;;;;;;;;;17.90;55.70;;;;;;4879790;29;19950;-61
2021/03/29 10:39:18;;;;;;;;;;;17.80;55.60;;;;;;4879687;29;19951;-61
2021/03/29 10:41:44;;;;;;;;;;;17.90;55.70;;;;;;4879840;29;19924;-62
2021/03/29 10:44:09;;;;;;;;;;;17.90;55.70;;;;;;4862917;29;19908;-62
2021/03/29 10:46:35;;;;;;;;;;;18.60;56.00;;;;;;4879409;29;19915;-62
2021/03/29 10:49:00;;;;;;;;;;;17.80;55.50;;;;;;4879504;29;19934;-62
2021/03/29 10:51:26;;;;;;;;;;;18.40;55.80;;;;;;4879502;29;19940;-62
2021/03/29 10:53:51;;;;;;;;;;;17.90;55.50;;;;;;4879533;29;19948;-61
2021/03/29 10:56:17;;;;;;;;;;;17.70;55.40;;;;;;4862797;29;19912;-62
2021/03/29 10:58:42;;;;;;;;;;;18.50;55.80;;;;;;4862655;29;19927;-62
2021/03/29 11:01:08;;;;;;;;;;;17.90;56.00;;;;;;4879328;29;19916;-62
2021/03/29 11:03:33;;;;;;;;;;;18.00;55.50;;;;;;4879543;29;19916;-61
2021/03/29 11:05:59;;;;;;;;;;;18.10;55.50;;;;;;4879785;29;20383;-62
2021/03/29 11:08:24;;;;;;;;;;;18.10;54.90;;;;;;4879276;29;19951;-62
2021/03/29 11:10:50;;;;;;;;;;;18.10;55.40;;;;;;4862453;29;19908;-62
2021/03/29 11:13:15;;;;;;;;;;;17.90;55.20;;;;;;4879064;29;19937;-62
2021/03/29 11:15:41;;;;;;;;;;;17.90;55.20;;;;;;4879189;29;20003;-61
2021/03/29 11:18:08;;;;;;;;;;;17.90;55.20;;;;;;4879143;29;20382;-62
2021/03/29 11:20:33;;;;;;;;;;;17.90;55.10;;;;;;4879122;29;19912;-62
2021/03/29 11:22:59;;;;;;;;;;;18.20;55.20;;;;;;4879259;29;19908;-61
2021/03/29 11:25:24;;;;;;;;;;;18.10;55.20;;;;;;4878999;29;19908;-62
2021/03/29 11:27:50;;;;;;;;;;;17.90;55.10;;;;;;4878921;29;19908;-61
2021/03/29 11:30:15;;;;;;;;;;;18.00;55.00;;;;;;4879117;29;19924;-62
2021/03/29 11:32:43;;;;;;;;;;;18.20;55.10;;;;;;4879096;29;20367;-62
2021/03/29 11:35:09;;;;;;;;;;;18.40;55.20;;;;;;4878732;29;19924;-62
2021/03/29 11:37:34;;;;;;;;;;;18.20;55.10;;;;;;4862156;29;20355;-61
2021/03/29 11:40:00;;;;;;;;;;;18.30;55.10;;;;;;4879233;29;19908;-61
2021/03/29 11:42:25;;;;;;;;;;;18.20;55.10;;;;;;4878763;29;20387;-62
2021/03/29 11:44:51;;;;;;;;;;;18.30;55.10;;;;;;4878399;29;19915;-62
2021/03/29 11:47:16;;;;;;;;;;;18.00;55.00;;;;;;4878731;29;19998;-62
2021/03/29 11:49:42;;;;;;;;;;;18.30;55.10;;;;;;4878555;29;19908;-62
2021/03/29 11:52:07;;;;;;;;;;;18.80;55.40;;;;;;4878875;29;19920;-62
2021/03/29 11:54:33;;;;;;;;;;;18.20;55.10;;;;;;4878437;29;19967;-61
2021/03/29 11:56:59;;;;;;;;;;;18.10;55.10;;;;;;4878853;29;20359;-62
2021/03/29 11:59:25;;;;;;;;;;;18.00;55.00;;;;;;4878628;29;19951;-62
2021/03/29 12:01:56;;;;;;;;;;;18.00;55.10;;;;;;4878431;29;19996;-62
2021/03/29 12:04:28;;;;;;;;;;;18.10;55.10;;;;;;4884757;29;19908;-62
2021/03/29 12:07:04;;;;;;;;;;;18.30;55.30;;;;;;4879192;29;19923;-62
2021/03/29 12:09:39;;;;;;;;;;;18.20;55.40;;;;;;4878877;29;19908;-61
2021/03/29 12:12:06;;;;;;;;;;;18.30;55.40;;;;;;4878827;29;19947;-62
2021/03/29 12:14:32;;;;;;;;;;;18.20;55.40;;;;;;4878372;29;20370;-62
2021/03/29 12:16:59;;;;;;;;;;;18.20;55.40;;;;;;4878347;29;19990;-60
2021/03/29 12:19:24;;;;;;;;;;;18.20;55.50;;;;;;4877282;29;19908;-61
2021/03/29 12:21:53;;;;;;;;;;;18.10;55.50;;;;;;4876907;29;19908;-60
2021/03/29 12:24:21;;;;;;;;;;;18.30;55.90;;;;;;4878382;29;19908;-61
2021/03/29 12:26:47;;;;;;;;;;;18.40;55.90;;;;;;4878414;29;20363;-61
2021/03/29 12:29:16;;;;;;;;;;;18.20;56.20;;;;;;4861829;29;19907;-61
2021/03/29 12:31:42;;;;;;;;;;;18.20;57.10;;;;;;4878469;29;20428;-60
2021/03/29 12:34:08;;;;;;;;;;;18.80;56.60;;;;;;4878586;29;19999;-61
2021/03/29 12:36:56;;;;;;;;;;;18.60;56.30;;;;;;4878762;29;19908;-60
2021/03/29 12:41:53;;;;;;;;;;;18.70;56.30;;;;;;4878729;29;20088;-61
2021/03/29 12:44:19;;;;;;;;;;;19.00;56.30;;;;;;4878476;29;20274;-61
2021/03/29 12:46:47;;;;;;;;;;;18.80;56.60;;;;;;4878321;29;19908;-61
2021/03/29 12:49:13;;;;;;;;;;;18.80;56.90;;;;;;4878389;29;19907;-61
2021/03/29 12:51:39;;;;;;;;;;;18.80;57.40;;;;;;4878256;29;19908;-62
2021/03/29 12:54:16;;;;;;;;;;;18.40;57.50;;;;;;4878081;29;19935;-61
2021/03/29 12:56:42;;;;;;;;;;;18.50;57.60;;;;;;4886235;29;19908;-61
2021/03/29 12:59:07;;;;;;;;;;;18.70;58.10;;;;;;4881646;29;20002;-61
2021/03/29 13:01:35;;;;;;;;;;;18.90;58.10;;;;;;4881491;29;19912;-62
2021/03/29 13:04:06;;;;;;;;;;;18.90;57.70;;;;;;4864702;29;20358;-61
2021/03/29 13:06:42;;;;;;;;;;;18.80;57.90;;;;;;4884527;29;19927;-62
2021/03/29 13:09:16;;;;;;;;;;;19.10;58.20;;;;;;4887693;29;19955;-62
2021/03/29 13:11:42;;;;;;;;;;;18.80;58.20;;;;;;4881163;29;19907;-62
2021/03/29 13:14:09;;;;;;;;;;;19.10;58.50;;;;;;4864509;29;19996;-61
2021/03/29 13:16:34;;;;;;;;;;;18.90;58.60;;;;;;4881317;29;19914;-61
2021/03/29 13:19:00;;;;;;;;;;;18.90;58.50;;;;;;4881205;29;20002;-61
2021/03/29 13:21:25;;;;;;;;;;;19.10;58.10;;;;;;4881120;29;19933;-62
2021/03/29 13:23:51;;;;;;;;;;;18.90;58.10;;;;;;4881071;29;19907;-62
2021/03/29 13:26:20;;;;;;;;;;;18.90;58.30;;;;;;4881095;29;20405;-62
2021/03/29 13:28:49;;;;;;;;;;;19.40;58.20;;;;;;4881299;29;19907;-61
2021/03/29 13:31:18;;;;;;;;;;;19.10;58.10;;;;;;4881146;29;19907;-61
2021/03/29 13:33:44;;;;;;;;;;;19.10;58.00;;;;;;4880747;29;19941;-61
2021/03/29 13:36:10;;;;;;;;;;;19.20;58.20;;;;;;4880553;29;19990;-61
2021/03/29 13:38:36;;;;;;;;;;;19.10;58.10;;;;;;4881026;29;19991;-62
2021/03/29 13:41:05;;;;;;;;;;;19.10;57.90;;;;;;4880657;29;19979;-61
2021/03/29 13:43:34;;;;;;;;;;;19.10;57.80;;;;;;4880976;29;20362;-62
2021/03/29 13:45:59;;;;;;;;;;;19.60;58.90;;;;;;4880967;29;19950;-62
2021/03/29 13:48:24;;;;;;;;;;;19.20;58.50;;;;;;4881009;29;20023;-61
2021/03/29 13:50:53;;;;;;;;;;;19.20;59.10;;;;;;4880651;29;19976;-62
2021/03/29 13:53:19;;;;;;;;;;;19.00;58.60;;;;;;4880636;29;19912;-61
2021/03/29 13:55:44;;;;;;;;;;;19.20;58.20;;;;;;4880681;29;19915;-62
2021/03/29 13:58:10;;;;;;;;;;;18.90;58.10;;;;;;4880579;29;19915;-62
2021/03/29 14:00:35;;;;;;;;;;;19.20;58.80;;;;;;4880591;29;19995;-61
2021/03/29 14:03:03;;;;;;;;;;;19.20;58.20;;;;;;4880604;29;19914;-62
2021/03/29 14:05:32;;;;;;;;;;;19.20;58.10;;;;;;4881345;29;20063;-61
2021/03/29 14:07:58;;;;;;;;;;;19.20;58.30;;;;;;4886365;29;19912;-60
2021/03/29 14:10:25;;;;;;;;;;;18.90;58.30;;;;;;4880279;29;19919;-61
2021/03/29 14:12:50;;;;;;;;;;;19.20;58.40;;;;;;4863324;29;20278;-61
2021/03/29 14:15:16;;;;;;;;;;;18.90;58.20;;;;;;4880054;29;19916;-61
2021/03/29 14:17:42;;;;;;;;;;;19.20;58.40;;;;;;4879940;29;19914;-60
2021/03/29 14:20:08;;;;;;;;;;;18.80;58.40;;;;;;4880053;29;19908;-60
2021/03/29 14:22:34;;;;;;;;;;;19.10;58.40;;;;;;4879899;29;19911;-60
2021/03/29 14:24:59;;;;;;;;;;;18.80;58.40;;;;;;4880333;29;19998;-60